| time (UTC) | temp C | wind direction | speed KPH | gust KPH | rain 1hr cm | rain 24hr cm | rain mn cm | humidity % | barometer mb |
| 20260504201542 | 28 | 85 | 9.7 | 25.7 | 0.00 | 0.00 | 0.00 | 54 | 1014.9 |
| 20260504200048 | 27 | 54 | 11.3 | 24.1 | 0.00 | 0.00 | 0.00 | 53 | 1015.1 |
| 20260504194545 | 27 | 65 | 9.7 | 24.1 | 0.00 | 0.00 | 0.00 | 55 | 1015.1 |
| 20260504193042 | 27 | 82 | 11.3 | 25.7 | 0.00 | 0.00 | 0.00 | 52 | 1015.2 |
| 20260504191549 | 27 | 55 | 9.7 | 24.1 | 0.00 | 0.00 | 0.00 | 53 | 1015.4 |
| 20260504190038 | 27 | 93 | 12.9 | 22.5 | 0.00 | 0.00 | 0.00 | 53 | 1015.8 |
| 20260504184548 | 28 | 98 | 14.5 | 22.5 | 0.00 | 0.00 | 0.00 | 51 | 1015.9 |
| 20260504183049 | 28 | 67 | 9.7 | 20.9 | 0.00 | 0.00 | 0.00 | 49 | 1016.1 |
| 20260504181547 | 28 | 83 | 9.7 | 20.9 | 0.00 | 0.00 | 0.00 | 50 | 1016.3 |
| 20260504180041 | 27 | 69 | 9.7 | 22.5 | 0.00 | 0.00 | 0.00 | 53 | 1016.5 |
| 20260504174535 | 27 | 70 | 12.9 | 20.9 | 0.00 | 0.00 | 0.00 | 51 | 1016.7 |
| 20260504173035 | 28 | 44 | 11.3 | 19.3 | 0.00 | 0.00 | 0.00 | 52 | 1016.7 |
| 20260504171542 | 26 | 62 | 9.7 | 17.7 | 0.00 | 0.00 | 0.00 | 54 | 1016.8 |
| 20260504081545 | 20 | 24 | 8.0 | 14.5 | 0.00 | 0.08 | 0.00 | 80 | 1015.7 |
| 20260504044541 | 20 | 11 | 3.2 | 12.9 | 0.00 | 0.36 | 0.00 | 80 | 1017.5 |
| 20260504043040 | 20 | 15 | 3.2 | 11.3 | 0.00 | 0.36 | 0.00 | 80 | 1017.7 |
| 20260504041535 | 20 | 18 | 3.2 | 12.9 | 0.00 | 0.36 | 0.00 | 80 | 1017.7 |
| 20260504040037 | 20 | 5 | 3.2 | 12.9 | 0.00 | 0.36 | 0.00 | 82 | 1017.7 |
| 20260504034552 | 20 | 46 | 3.2 | 11.3 | 0.00 | 0.36 | 0.36 | 78 | 1017.8 |
| 20260504033033 | 20 | 19 | 3.2 | 12.9 | 0.00 | 0.36 | 0.36 | 78 | 1017.4 |
| 20260504031541 | 20 | 40 | 3.2 | 8.0 | 0.00 | 0.36 | 0.36 | 78 | 1017.6 |
| 20260504030045 | 20 | 31 | 3.2 | 12.9 | 0.00 | 0.36 | 0.36 | 78 | 1017.7 |
| 20260504024537 | 21 | 31 | 4.8 | 12.9 | 0.00 | 0.36 | 0.36 | 77 | 1017.6 |
| 20260504023058 | 21 | 63 | 3.2 | 14.5 | 0.00 | 0.36 | 0.36 | 77 | 1017.5 |
| 20260504021540 | 21 | 32 | 3.2 | 11.3 | 0.00 | 0.36 | 0.36 | 76 | 1017.4 |
| 20260504020040 | 21 | 52 | 6.4 | 16.1 | 0.00 | 0.36 | 0.36 | 76 | 1017.3 |
| 20260504014545 | 21 | 43 | 4.8 | 14.5 | 0.00 | 0.36 | 0.36 | 75 | 1017.3 |
| 20260504013044 | 21 | 60 | 8.0 | 16.1 | 0.00 | 0.36 | 0.36 | 74 | 1017.2 |
| 20260504011543 | 21 | 46 | 6.4 | 19.3 | 0.00 | 0.36 | 0.36 | 74 | 1017.2 |
| 20260504010051 | 21 | 63 | 4.8 | 16.1 | 0.00 | 0.36 | 0.36 | 73 | 1016.9 |
| 20260504004557 | 21 | 26 | 8.0 | 19.3 | 0.00 | 0.36 | 0.36 | 73 | 1016.6 |
| 20260504003040 | 22 | 77 | 6.4 | 14.5 | 0.00 | 0.36 | 0.36 | 72 | 1016.6 |
| 20260504001535 | 22 | 50 | 6.4 | 24.1 | 0.00 | 0.36 | 0.36 | 72 | 1016.5 |
| 20260504000037 | 22 | 76 | 11.3 | 20.9 | 0.00 | 0.36 | 0.36 | 70 | 1016.2 |
| 20260503234541 | 22 | 23 | 9.7 | 16.1 | 0.00 | 0.43 | 0.36 | 70 | 1016.1 |
| 20260503233034 | 22 | 46 | 8.0 | 22.5 | 0.00 | 0.43 | 0.36 | 70 | 1016.2 |
| 20260503231535 | 22 | 46 | 8.0 | 24.1 | 0.00 | 0.43 | 0.36 | 69 | 1016.1 |
| 20260503230035 | 23 | 64 | 8.0 | 17.7 | 0.00 | 0.43 | 0.36 | 70 | 1016.1 |
| 20260503224535 | 23 | 42 | 11.3 | 20.9 | 0.00 | 0.46 | 0.36 | 69 | 1016.1 |
| 20260503223036 | 23 | 60 | 11.3 | 20.9 | 0.00 | 0.46 | 0.36 | 69 | 1016.0 |
| 20260503221541 | 23 | 58 | 9.7 | 20.9 | 0.00 | 0.46 | 0.36 | 68 | 1015.9 |
| 20260503220035 | 23 | 67 | 8.0 | 19.3 | 0.00 | 0.46 | 0.36 | 68 | 1015.9 |
| 20260503214535 | 23 | 82 | 8.0 | 19.3 | 0.00 | 0.58 | 0.36 | 68 | 1015.8 |
| 20260503213046 | 24 | 53 | 8.0 | 20.9 | 0.00 | 0.58 | 0.36 | 67 | 1015.8 |
| 20260503211541 | 25 | 59 | 6.4 | 14.5 | 0.00 | 0.58 | 0.36 | 66 | 1015.8 |
| 20260503210048 | 25 | 78 | 9.7 | 20.9 | 0.00 | 0.58 | 0.36 | 64 | 1015.8 |
| 20260503204546 | 25 | 352 | 9.7 | 17.7 | 0.00 | 0.58 | 0.36 | 64 | 1015.9 |
| 20260503203041 | 25 | 69 | 8.0 | 19.3 | 0.00 | 0.58 | 0.36 | 64 | 1016.0 |